createdAt,value
2022-11-19T00:01:22.218Z,3.50
2022-11-19T00:03:53.459Z,1.20
2022-11-19T00:06:29.175Z,4.07
2022-11-19T00:08:59.698Z,3.08
2022-11-19T00:11:49.455Z,4.15
2022-11-19T00:14:20.175Z,5.32
2022-11-19T00:16:50.476Z,3.33
2022-11-19T00:19:21.399Z,5.38
2022-11-19T00:21:52.115Z,5.38
2022-11-19T00:24:24.306Z,2.58
2022-11-19T00:26:54.595Z,3.58
2022-11-19T00:29:26.012Z,3.30
2022-11-19T00:31:56.227Z,3.22
2022-11-19T00:34:26.446Z,3.47
2022-11-19T00:36:56.716Z,3.15
2022-11-19T00:39:27.018Z,4.57
2022-11-19T00:41:57.241Z,2.42
2022-11-19T00:44:29.448Z,5.72
2022-11-19T00:47:02.918Z,2.60
2022-11-19T00:49:33.293Z,3.08
2022-11-19T00:52:03.613Z,3.15
2022-11-19T00:54:34.197Z,4.25
2022-11-19T00:57:04.409Z,3.92
2022-11-19T00:59:34.618Z,5.53
2022-11-19T01:02:04.928Z,3.10
2022-11-19T01:04:35.300Z,3.38
2022-11-19T01:07:05.680Z,4.20
2022-11-19T01:09:36.134Z,4.82
2022-11-19T01:12:06.544Z,4.93
2022-11-19T01:14:36.787Z,3.63
2022-11-19T01:17:07.045Z,4.47
2022-11-19T01:19:37.220Z,6.18
2022-11-19T01:22:07.580Z,4.80
2022-11-19T01:24:37.875Z,3.38
2022-11-19T01:27:08.096Z,5.30
2022-11-19T01:29:38.365Z,3.65
2022-11-19T01:32:08.666Z,3.67
2022-11-19T01:34:38.875Z,3.47
2022-11-19T01:37:09.130Z,4.22
2022-11-19T01:39:39.361Z,2.65
2022-11-19T01:42:35.251Z,2.28
2022-11-19T01:45:08.910Z,3.03
2022-11-19T01:47:39.100Z,3.08
2022-11-19T01:50:09.515Z,3.35
2022-11-19T01:52:41.536Z,4.05
2022-11-19T01:55:13.743Z,2.97
2022-11-19T01:57:44.184Z,1.73
2022-11-19T02:00:15.048Z,2.65
2022-11-19T02:02:45.285Z,2.53
2022-11-19T02:05:15.947Z,2.55
2022-11-19T02:07:54.610Z,2.45
2022-11-19T02:10:41.460Z,1.70
2022-11-19T02:13:25.835Z,2.63
2022-11-19T02:16:41.965Z,1.58
2022-11-19T02:19:38.256Z,5.03
2022-11-19T02:22:27.848Z,1.98
2022-11-19T02:25:02.500Z,3.17
2022-11-19T02:27:35.736Z,3.67
2022-11-19T02:30:20.580Z,4.93
2022-11-19T02:32:53.630Z,3.70
2022-11-19T02:35:44.763Z,6.10
2022-11-19T02:38:31.348Z,3.05
2022-11-19T02:41:38.848Z,3.08
2022-11-19T02:44:43.082Z,2.95
2022-11-19T02:47:18.869Z,3.15
2022-11-19T02:49:51.654Z,3.97
2022-11-19T02:52:22.830Z,4.68
2022-11-19T02:54:53.091Z,2.22
2022-11-19T02:57:23.586Z,5.07
2022-11-19T03:00:25.168Z,3.47
2022-11-19T03:03:34.299Z,3.65
2022-11-19T03:06:27.951Z,2.90
2022-11-19T03:08:58.431Z,3.53
2022-11-19T03:11:34.242Z,5.93
2022-11-19T03:14:52.995Z,3.70
2022-11-19T03:17:49.975Z,2.40
2022-11-19T03:20:28.970Z,4.32
2022-11-19T03:23:11.928Z,3.47
2022-11-19T03:25:51.228Z,2.10
2022-11-19T03:28:27.981Z,2.33
2022-11-19T03:31:02.026Z,4.03
2022-11-19T03:33:44.440Z,3.97
2022-11-19T03:36:19.240Z,7.00
2022-11-19T03:39:05.623Z,1.80
2022-11-19T03:41:38.283Z,1.42
2022-11-19T03:44:37.372Z,1.83
2022-11-19T03:47:16.883Z,2.72
2022-11-19T03:49:52.210Z,4.65
2022-11-19T03:52:24.483Z,2.72
2022-11-19T03:54:54.884Z,4.03
2022-11-19T03:57:27.054Z,2.65
2022-11-19T03:59:57.364Z,2.88
2022-11-19T04:02:27.680Z,1.80
2022-11-19T04:04:57.868Z,2.97
2022-11-19T04:07:28.212Z,2.67
2022-11-19T04:09:58.468Z,2.75
2022-11-19T04:12:28.786Z,1.90
2022-11-19T04:14:59.059Z,2.90
2022-11-19T04:17:29.281Z,1.77
2022-11-19T04:19:59.438Z,3.15
2022-11-19T04:22:29.786Z,3.47
2022-11-19T04:25:02.826Z,2.40
2022-11-19T04:27:33.323Z,1.42
2022-11-19T04:30:03.712Z,1.10
2022-11-19T04:32:34.499Z,2.42
2022-11-19T04:35:05.075Z,2.75
2022-11-19T04:37:35.474Z,1.67
2022-11-19T04:40:06.298Z,2.78
2022-11-19T04:42:36.589Z,2.72
2022-11-19T04:45:06.998Z,3.25
2022-11-19T04:47:37.639Z,3.90
2022-11-19T04:50:08.515Z,2.92
2022-11-19T04:52:41.077Z,0.80
2022-11-19T04:55:12.830Z,1.55
2022-11-19T04:57:43.124Z,1.58
2022-11-19T05:00:13.857Z,2.67
2022-11-19T05:02:44.330Z,2.08
2022-11-19T05:05:14.791Z,1.25
2022-11-19T05:07:45.104Z,1.95
2022-11-19T05:10:15.467Z,2.78
2022-11-19T05:12:45.761Z,1.15
2022-11-19T05:15:16.005Z,3.05
2022-11-19T05:17:47.782Z,1.48
2022-11-19T05:20:18.414Z,2.42
2022-11-19T05:22:48.681Z,2.72
2022-11-19T05:25:19.021Z,2.08
2022-11-19T05:27:49.547Z,0.80
2022-11-19T05:30:20.226Z,1.92
2022-11-19T05:32:50.960Z,4.05
2022-11-19T05:35:21.596Z,2.10
2022-11-19T05:37:53.097Z,1.30
2022-11-19T05:40:23.269Z,1.60
2022-11-19T05:42:54.108Z,1.05
2022-11-19T05:45:24.382Z,2.60
2022-11-19T05:47:58.025Z,1.48
2022-11-19T05:50:28.214Z,1.15
2022-11-19T05:52:59.826Z,1.45
2022-11-19T05:55:30.048Z,0.77
2022-11-19T05:58:00.586Z,0.95
2022-11-19T06:00:32.218Z,1.25
2022-11-19T06:03:02.473Z,2.92
2022-11-19T06:05:38.721Z,2.25
2022-11-19T06:08:10.794Z,0.75
2022-11-19T06:10:41.245Z,1.73
2022-11-19T06:13:11.705Z,5.07
2022-11-19T06:15:42.151Z,0.80
2022-11-19T06:18:12.657Z,5.03
2022-11-19T06:20:42.970Z,3.80
2022-11-19T06:23:13.188Z,2.60
2022-11-19T06:25:43.420Z,2.22
2022-11-19T06:28:13.605Z,0.95
2022-11-19T06:30:43.939Z,5.60
2022-11-19T06:33:14.170Z,2.78
2022-11-19T06:35:44.430Z,2.78
2022-11-19T06:38:15.030Z,1.88
2022-11-19T06:40:47.604Z,1.83
2022-11-19T06:43:17.772Z,1.60
2022-11-19T06:45:47.899Z,1.45
2022-11-19T06:48:18.280Z,2.85
2022-11-19T06:50:49.176Z,5.00
2022-11-19T06:53:19.896Z,4.10
2022-11-19T06:55:50.317Z,2.63
2022-11-19T06:58:20.503Z,1.63
2022-11-19T07:00:50.769Z,2.45
2022-11-19T07:03:21.092Z,3.65
2022-11-19T07:05:51.945Z,4.68
2022-11-19T07:08:28.127Z,5.22
2022-11-19T07:10:58.432Z,2.30
2022-11-19T07:13:48.637Z,2.78
2022-11-19T07:16:40.112Z,5.35
2022-11-19T07:19:11.273Z,2.97
2022-11-19T07:21:42.039Z,1.58
2022-11-19T07:24:13.070Z,5.88
2022-11-19T07:26:43.237Z,3.50
2022-11-19T07:29:15.990Z,3.42
2022-11-19T07:31:48.580Z,4.00
2022-11-19T07:34:19.720Z,4.28
2022-11-19T07:36:51.766Z,5.22
2022-11-19T07:39:22.310Z,2.95
2022-11-19T07:42:11.077Z,5.55
2022-11-19T07:44:41.847Z,4.78
2022-11-19T07:47:12.167Z,5.13
2022-11-19T07:49:42.500Z,4.15
2022-11-19T07:52:12.678Z,10.35
2022-11-19T07:54:43.298Z,3.50
2022-11-19T07:57:13.909Z,3.83
2022-11-19T07:59:44.347Z,5.60
2022-11-19T08:02:15.741Z,7.15
2022-11-19T08:04:46.188Z,3.28
2022-11-19T08:07:16.605Z,2.97
2022-11-19T08:09:47.077Z,4.97
2022-11-19T08:12:17.418Z,3.53
2022-11-19T08:14:47.939Z,2.38
2022-11-19T08:17:36.386Z,2.60
2022-11-19T08:20:06.997Z,1.38
2022-11-19T08:22:42.294Z,3.70
2022-11-19T08:25:12.777Z,4.78
2022-11-19T08:27:42.950Z,3.20
2022-11-19T08:30:13.526Z,1.88
2022-11-19T08:32:43.733Z,0.98
2022-11-19T08:35:14.004Z,4.45
2022-11-19T08:37:44.188Z,2.42
2022-11-19T08:40:14.758Z,4.47
2022-11-19T08:43:02.959Z,3.00
2022-11-19T08:45:38.822Z,2.50
2022-11-19T08:48:15.165Z,2.97
2022-11-19T08:50:45.600Z,6.10
2022-11-19T08:53:15.872Z,4.70
2022-11-19T08:55:52.577Z,2.13
2022-11-19T08:58:22.894Z,3.10
2022-11-19T09:00:53.277Z,6.88
2022-11-19T09:03:23.562Z,1.25
2022-11-19T09:06:00.774Z,2.72
2022-11-19T09:08:34.354Z,2.35
2022-11-19T09:11:17.770Z,2.38
2022-11-19T09:13:48.243Z,2.13
2022-11-19T09:16:19.487Z,2.45
2022-11-19T09:18:50.623Z,1.58
2022-11-19T09:21:21.356Z,3.65
2022-11-19T09:23:51.802Z,2.33
2022-11-19T09:26:22.412Z,2.25
2022-11-19T09:28:53.775Z,3.15
2022-11-19T09:31:24.340Z,2.20
2022-11-19T09:33:56.150Z,4.68
2022-11-19T09:36:26.575Z,1.35
2022-11-19T09:39:00.952Z,1.80
2022-11-19T09:41:45.400Z,2.33
2022-11-19T09:44:36.336Z,3.33
2022-11-19T09:47:18.575Z,1.10
2022-11-19T09:50:07.196Z,0.80
2022-11-19T09:53:01.971Z,1.75
2022-11-19T09:55:37.803Z,3.63
2022-11-19T09:58:14.644Z,1.85
2022-11-19T10:00:47.189Z,4.47
2022-11-19T10:03:29.986Z,1.05
2022-11-19T10:06:11.950Z,4.22
2022-11-19T10:08:59.026Z,2.35
2022-11-19T10:12:03.007Z,1.67
2022-11-19T10:14:39.027Z,0.77
2022-11-19T10:17:45.265Z,1.17
2022-11-19T10:20:38.324Z,2.38
2022-11-19T10:23:51.864Z,1.52
2022-11-19T10:26:31.870Z,1.33
2022-11-19T10:29:02.157Z,1.10
2022-11-19T10:31:38.238Z,0.60
2022-11-19T10:34:29.162Z,0.47
2022-11-19T10:37:11.733Z,1.30
2022-11-19T10:40:10.737Z,0.85
2022-11-19T10:42:44.600Z,1.48
2022-11-19T10:45:32.852Z,0.40
2022-11-19T10:48:21.873Z,3.13
2022-11-19T10:50:53.003Z,2.63
2022-11-19T10:53:38.025Z,2.50
2022-11-19T10:56:44.437Z,2.17
2022-11-19T10:59:24.604Z,1.67
2022-11-19T11:02:03.807Z,2.28
2022-11-19T11:04:34.070Z,0.98
2022-11-19T11:07:06.831Z,7.97
2022-11-19T11:09:42.513Z,4.55
2022-11-19T11:12:39.456Z,1.25
2022-11-19T11:15:29.511Z,3.20
2022-11-19T11:18:11.340Z,2.58
2022-11-19T11:20:47.106Z,4.68
2022-11-19T11:23:30.658Z,4.07
2022-11-19T11:26:12.468Z,0.88
2022-11-19T11:29:17.922Z,4.28
2022-11-19T11:31:49.923Z,2.05
2022-11-19T11:34:35.327Z,0.60
2022-11-19T11:37:08.369Z,1.75
2022-11-19T11:39:41.700Z,0.60
2022-11-19T11:42:17.488Z,1.95
2022-11-19T11:44:55.693Z,1.20
2022-11-19T11:47:33.130Z,0.60
2022-11-19T11:50:22.788Z,5.05
2022-11-19T11:52:55.633Z,3.40
2022-11-19T11:55:29.191Z,1.02
2022-11-19T11:58:05.507Z,1.00
2022-11-19T12:00:48.569Z,0.75
2022-11-19T12:03:21.294Z,0.90
2022-11-19T12:06:07.009Z,0.65
2022-11-19T12:08:55.519Z,0.30
2022-11-19T12:11:56.635Z,0.22
2022-11-19T12:14:47.911Z,0.40
2022-11-19T12:17:30.470Z,0.77
2022-11-19T12:20:25.422Z,0.93
2022-11-19T12:23:10.407Z,2.83
2022-11-19T12:26:01.440Z,0.68
2022-11-19T12:28:43.500Z,1.40
2022-11-19T12:31:51.936Z,1.90
2022-11-19T12:34:35.493Z,0.80
2022-11-19T12:37:26.721Z,0.95
2022-11-19T12:40:13.415Z,0.82
2022-11-19T12:43:11.007Z,0.73
2022-11-19T12:46:16.905Z,0.80
2022-11-19T12:49:18.123Z,1.48
2022-11-19T12:51:57.661Z,0.63
2022-11-19T12:55:14.518Z,0.80
2022-11-19T12:57:59.983Z,0.68
2022-11-19T13:00:35.704Z,2.55
2022-11-19T13:03:19.109Z,2.72
2022-11-19T13:06:18.052Z,2.10
2022-11-19T13:09:11.684Z,0.63
2022-11-19T13:11:57.350Z,1.25
2022-11-19T13:14:43.208Z,0.47
2022-11-19T13:17:42.038Z,0.77
2022-11-19T13:20:47.687Z,0.60
2022-11-19T13:23:43.859Z,0.80
2022-11-19T13:26:19.382Z,0.68
2022-11-19T13:29:32.168Z,0.73
2022-11-19T13:32:12.910Z,2.58
2022-11-19T13:35:15.053Z,0.55
2022-11-19T13:37:56.857Z,1.05
2022-11-19T13:40:56.816Z,0.57
2022-11-19T13:43:46.010Z,0.80
2022-11-19T13:46:16.255Z,0.57
2022-11-19T13:48:56.578Z,0.45
2022-11-19T13:51:37.507Z,1.30
2022-11-19T13:54:10.268Z,2.75
2022-11-19T13:56:49.503Z,0.70
2022-11-19T13:59:42.744Z,0.52
2022-11-19T14:02:18.819Z,0.63
2022-11-19T14:05:25.318Z,1.55
2022-11-19T14:07:55.503Z,0.82
2022-11-19T14:10:54.635Z,1.38
2022-11-19T14:13:46.103Z,1.20
2022-11-19T14:16:48.778Z,0.77
2022-11-19T14:19:23.819Z,1.00
2022-11-19T14:22:14.385Z,0.70
2022-11-19T14:25:08.576Z,1.27
2022-11-19T14:27:38.804Z,0.38
2022-11-19T14:30:17.888Z,0.88
2022-11-19T14:32:51.193Z,0.63
2022-11-19T14:35:32.646Z,1.05
2022-11-19T14:38:13.975Z,0.65
2022-11-19T14:40:44.274Z,0.60
2022-11-19T14:43:49.735Z,0.68
2022-11-19T14:46:20.603Z,0.65
2022-11-19T14:49:02.836Z,0.55
2022-11-19T14:51:33.116Z,0.57
2022-11-19T14:54:19.668Z,1.05
2022-11-19T14:57:01.438Z,1.15
2022-11-19T14:59:36.392Z,1.83
2022-11-19T15:02:25.074Z,1.02
2022-11-19T15:05:06.396Z,0.73
2022-11-19T15:07:41.451Z,0.40
2022-11-19T15:10:19.417Z,1.55
2022-11-19T15:12:52.687Z,1.00
2022-11-19T15:15:22.990Z,0.75
2022-11-19T15:18:04.505Z,0.45
2022-11-19T15:20:37.794Z,0.40
2022-11-19T15:23:36.517Z,0.98
2022-11-19T15:26:49.651Z,0.50
2022-11-19T15:29:58.664Z,0.55
2022-11-19T15:32:44.296Z,0.32
2022-11-19T15:35:26.781Z,0.63
2022-11-19T15:38:12.293Z,1.08
2022-11-19T15:40:47.316Z,0.80
2022-11-19T15:43:26.656Z,0.70
2022-11-19T15:46:03.198Z,1.20
2022-11-19T15:48:54.268Z,0.98
2022-11-19T15:51:25.550Z,0.30
2022-11-19T15:54:09.311Z,0.73
2022-11-19T15:56:51.827Z,1.75
2022-11-19T15:59:23.155Z,0.93
2022-11-19T16:02:05.589Z,0.40
2022-11-19T16:04:41.086Z,0.47
2022-11-19T16:07:13.205Z,1.08
2022-11-19T16:09:43.989Z,0.88
2022-11-19T16:12:45.426Z,0.80
2022-11-19T16:15:45.152Z,0.55
2022-11-19T16:18:17.835Z,1.20
2022-11-19T16:20:52.033Z,0.82
2022-11-19T16:23:24.960Z,0.55
2022-11-19T16:25:55.843Z,0.70
2022-11-19T16:28:34.609Z,0.32
2022-11-19T16:31:07.093Z,1.08
2022-11-19T16:33:37.824Z,0.65
2022-11-19T16:36:20.331Z,0.77
2022-11-19T16:38:53.173Z,0.95
2022-11-19T16:41:44.347Z,0.52
2022-11-19T16:44:22.881Z,0.57
2022-11-19T16:46:54.182Z,0.50
2022-11-19T16:49:33.786Z,1.02
2022-11-19T16:52:04.748Z,0.30
2022-11-19T16:54:51.028Z,0.40
2022-11-19T16:57:26.400Z,0.60
2022-11-19T17:00:02.646Z,0.30
2022-11-19T17:02:40.355Z,0.93
2022-11-19T17:05:12.149Z,0.30
2022-11-19T17:07:44.554Z,0.85
2022-11-19T17:10:28.611Z,0.40
2022-11-19T17:13:05.922Z,1.98
2022-11-19T17:15:44.303Z,1.92
2022-11-19T17:18:44.250Z,0.40
2022-11-19T17:21:31.009Z,0.30
2022-11-19T17:24:01.480Z,1.75
2022-11-19T17:26:31.755Z,0.50
2022-11-19T17:29:14.053Z,0.88
2022-11-19T17:31:50.857Z,0.73
2022-11-19T17:34:50.985Z,0.60
2022-11-19T17:37:21.347Z,0.40
2022-11-19T17:39:51.853Z,0.30
2022-11-19T17:42:39.854Z,0.35
2022-11-19T17:45:11.142Z,0.63
2022-11-19T17:47:41.484Z,0.52
2022-11-19T17:50:11.721Z,1.08
2022-11-19T17:52:41.961Z,0.73
2022-11-19T17:55:22.262Z,0.70
2022-11-19T17:57:55.508Z,0.65
2022-11-19T18:00:25.658Z,0.55
2022-11-19T18:03:01.745Z,0.52
2022-11-19T18:05:38.353Z,0.50
2022-11-19T18:08:08.635Z,1.30
2022-11-19T18:10:38.915Z,0.90
2022-11-19T18:13:29.187Z,0.43
2022-11-19T18:15:59.724Z,0.40
2022-11-19T18:18:30.018Z,0.47
2022-11-19T18:21:02.142Z,0.60
2022-11-19T18:23:32.617Z,0.30
2022-11-19T18:26:03.203Z,0.30
2022-11-19T18:28:33.459Z,0.52
2022-11-19T18:31:03.710Z,0.90
2022-11-19T18:33:37.078Z,0.85
2022-11-19T18:36:07.640Z,0.98
2022-11-19T18:38:37.861Z,0.60
2022-11-19T18:41:08.518Z,0.70
2022-11-19T18:43:56.729Z,0.80
2022-11-19T18:46:27.203Z,0.28
2022-11-19T18:48:57.626Z,0.20
2022-11-19T18:51:31.158Z,1.27
2022-11-19T18:54:01.519Z,0.60
2022-11-19T18:56:31.934Z,4.22
2022-11-19T18:59:04.997Z,0.30
2022-11-19T19:01:35.628Z,3.75
2022-11-19T19:04:05.892Z,2.63
2022-11-19T19:06:36.178Z,0.90
2022-11-19T19:09:06.471Z,0.30
2022-11-19T19:11:54.639Z,0.30
2022-11-19T19:14:25.018Z,1.90
2022-11-19T19:16:55.601Z,0.57
2022-11-19T19:19:25.922Z,0.70
2022-11-19T19:21:56.321Z,0.43
2022-11-19T19:24:26.762Z,0.98
2022-11-19T19:26:57.757Z,0.43
2022-11-19T19:29:28.200Z,0.73
2022-11-19T19:32:00.057Z,1.70
2022-11-19T19:34:34.615Z,2.08
2022-11-19T19:37:05.696Z,0.43
2022-11-19T19:39:36.015Z,0.35
2022-11-19T19:42:06.394Z,0.80
2022-11-19T19:44:36.693Z,1.65
2022-11-19T19:47:07.623Z,0.88
2022-11-19T19:49:39.222Z,0.30
2022-11-19T19:52:09.543Z,0.88
2022-11-19T19:54:42.465Z,0.30
2022-11-19T19:57:12.831Z,0.70
2022-11-19T19:59:43.180Z,0.95
2022-11-19T20:02:13.431Z,0.30
2022-11-19T20:04:43.613Z,0.35
2022-11-19T20:07:13.933Z,0.30
2022-11-19T20:09:44.123Z,0.82
2022-11-19T20:12:14.350Z,0.90
2022-11-19T20:14:44.626Z,0.30
2022-11-19T20:17:14.951Z,0.60
2022-11-19T20:19:45.132Z,0.30
2022-11-19T20:22:15.392Z,0.30
2022-11-19T20:24:45.587Z,0.30
2022-11-19T20:27:15.803Z,0.43
2022-11-19T20:29:46.108Z,0.25
2022-11-19T20:32:16.365Z,0.43
2022-11-19T20:34:46.557Z,0.77
2022-11-19T20:37:16.707Z,0.30
2022-11-19T20:39:46.972Z,0.60
2022-11-19T20:42:35.223Z,2.38
2022-11-19T20:45:06.004Z,0.30
2022-11-19T20:47:36.186Z,0.63
2022-11-19T20:50:06.448Z,0.30
2022-11-19T20:52:36.694Z,0.47
2022-11-19T20:55:07.766Z,0.28
2022-11-19T20:57:37.969Z,0.30
2022-11-19T21:00:08.878Z,0.20
2022-11-19T21:02:39.518Z,0.82
2022-11-19T21:05:10.091Z,1.20
2022-11-19T21:07:40.321Z,0.22
2022-11-19T21:10:11.088Z,1.45
2022-11-19T21:13:01.012Z,2.45
2022-11-19T21:15:32.524Z,0.80
2022-11-19T21:18:03.051Z,1.50
2022-11-19T21:20:33.400Z,1.42
2022-11-19T21:23:03.609Z,0.50
2022-11-19T21:25:33.741Z,0.40
2022-11-19T21:28:04.041Z,2.38
2022-11-19T21:30:35.503Z,3.55
2022-11-19T21:33:06.057Z,0.40
2022-11-19T21:35:36.627Z,1.80
2022-11-19T21:38:10.960Z,1.08
2022-11-19T21:40:43.204Z,0.57
2022-11-19T21:43:13.350Z,0.45
2022-11-19T21:45:43.908Z,2.60
2022-11-19T21:48:14.285Z,0.85
2022-11-19T21:50:45.155Z,0.40
2022-11-19T21:53:15.837Z,2.25
2022-11-19T21:55:47.365Z,1.80
2022-11-19T21:58:20.431Z,5.15
2022-11-19T22:00:50.782Z,2.78
2022-11-19T22:03:22.197Z,3.05
2022-11-19T22:06:01.715Z,1.33
2022-11-19T22:08:34.236Z,1.48
2022-11-19T22:11:26.785Z,2.15
2022-11-19T22:13:58.234Z,3.20
2022-11-19T22:16:28.737Z,0.77
2022-11-19T22:18:59.118Z,2.78
2022-11-19T22:21:30.949Z,1.75
2022-11-19T22:24:01.307Z,0.98
2022-11-19T22:26:31.668Z,1.52
2022-11-19T22:29:01.850Z,2.38
2022-11-19T22:31:32.089Z,1.33
2022-11-19T22:34:02.336Z,2.22
2022-11-19T22:36:34.898Z,1.20
2022-11-19T22:39:05.809Z,0.60
2022-11-19T22:41:35.960Z,2.70
2022-11-19T22:44:07.076Z,2.47
2022-11-19T22:46:37.254Z,1.65
2022-11-19T22:49:07.780Z,1.63
2022-11-19T22:51:38.166Z,2.65
2022-11-19T22:54:13.287Z,1.50
2022-11-19T22:56:43.496Z,1.33
2022-11-19T22:59:13.743Z,1.75
2022-11-19T23:01:43.940Z,1.58
2022-11-19T23:04:17.289Z,1.38
2022-11-19T23:06:47.472Z,0.90
2022-11-19T23:09:17.785Z,2.40
2022-11-19T23:12:06.252Z,0.65
2022-11-19T23:14:36.529Z,2.65
2022-11-19T23:17:06.790Z,6.80
2022-11-19T23:19:40.181Z,0.93
2022-11-19T23:22:10.395Z,3.80
2022-11-19T23:24:40.651Z,5.35
2022-11-19T23:27:10.854Z,6.15
2022-11-19T23:29:41.071Z,10.43
2022-11-19T23:32:11.278Z,9.07
2022-11-19T23:34:41.506Z,7.53
2022-11-19T23:37:11.675Z,8.82
2022-11-19T23:39:41.893Z,9.65
2022-11-19T23:42:12.216Z,9.65
2022-11-19T23:44:42.558Z,5.05
2022-11-19T23:47:13.032Z,5.50
2022-11-19T23:49:43.502Z,4.60
2022-11-19T23:52:13.948Z,5.65
2022-11-19T23:54:44.298Z,3.80
2022-11-19T23:57:14.686Z,6.07
2022-11-19T23:59:45.640Z,3.28
